sensor_id;sensor_type;location;lat;lon;timestamp;P1;durP1;ratioP1;P2;durP2;ratioP2
60314;SDS011;46159;42.550;21.904;2023-09-19T00:01:08;19.10;;;14.50;;
60314;SDS011;46159;42.550;21.904;2023-09-19T00:03:34;22.67;;;16.52;;
60314;SDS011;46159;42.550;21.904;2023-09-19T00:06:04;22.88;;;17.20;;
60314;SDS011;46159;42.550;21.904;2023-09-19T00:08:32;24.35;;;17.40;;
60314;SDS011;46159;42.550;21.904;2023-09-19T00:10:58;26.05;;;16.95;;
60314;SDS011;46159;42.550;21.904;2023-09-19T00:13:31;30.67;;;20.90;;
60314;SDS011;46159;42.550;21.904;2023-09-19T00:15:58;38.30;;;28.27;;
60314;SDS011;46159;42.550;21.904;2023-09-19T00:18:25;42.38;;;29.23;;
60314;SDS011;46159;42.550;21.904;2023-09-19T00:20:58;25.30;;;19.25;;
60314;SDS011;46159;42.550;21.904;2023-09-19T00:23:24;29.48;;;19.65;;
60314;SDS011;46159;42.550;21.904;2023-09-19T00:25:50;22.48;;;16.88;;
60314;SDS011;46159;42.550;21.904;2023-09-19T00:28:18;25.77;;;18.83;;
60314;SDS011;46159;42.550;21.904;2023-09-19T00:30:45;21.45;;;16.45;;
60314;SDS011;46159;42.550;21.904;2023-09-19T00:33:17;21.35;;;15.90;;
60314;SDS011;46159;42.550;21.904;2023-09-19T00:35:51;20.23;;;15.30;;
60314;SDS011;46159;42.550;21.904;2023-09-19T00:38:17;22.08;;;15.82;;
60314;SDS011;46159;42.550;21.904;2023-09-19T00:40:46;18.80;;;15.45;;
60314;SDS011;46159;42.550;21.904;2023-09-19T00:43:12;18.20;;;14.85;;
60314;SDS011;46159;42.550;21.904;2023-09-19T00:45:39;23.42;;;15.20;;
60314;SDS011;46159;42.550;21.904;2023-09-19T00:48:08;19.45;;;14.30;;
60314;SDS011;46159;42.550;21.904;2023-09-19T00:50:35;18.33;;;15.18;;
60314;SDS011;46159;42.550;21.904;2023-09-19T00:53:01;28.00;;;14.98;;
60314;SDS011;46159;42.550;21.904;2023-09-19T00:55:34;15.10;;;12.13;;
60314;SDS011;46159;42.550;21.904;2023-09-19T00:58:02;15.63;;;11.65;;
60314;SDS011;46159;42.550;21.904;2023-09-19T01:00:31;16.08;;;12.82;;
60314;SDS011;46159;42.550;21.904;2023-09-19T01:02:59;19.60;;;13.82;;
60314;SDS011;46159;42.550;21.904;2023-09-19T01:05:26;18.02;;;12.77;;
60314;SDS011;46159;42.550;21.904;2023-09-19T01:07:53;17.13;;;13.35;;
60314;SDS011;46159;42.550;21.904;2023-09-19T01:10:19;16.83;;;12.38;;
60314;SDS011;46159;42.550;21.904;2023-09-19T01:20:53;17.80;;;12.48;;
60314;SDS011;46159;42.550;21.904;2023-09-19T01:28:39;16.30;;;12.77;;
60314;SDS011;46159;42.550;21.904;2023-09-19T01:36:22;18.33;;;13.73;;
60314;SDS011;46159;42.550;21.904;2023-09-19T01:38:49;19.17;;;13.85;;
60314;SDS011;46159;42.550;21.904;2023-09-19T01:41:17;17.60;;;12.98;;
60314;SDS011;46159;42.550;21.904;2023-09-19T01:43:45;19.92;;;13.80;;
60314;SDS011;46159;42.550;21.904;2023-09-19T01:46:17;19.10;;;13.90;;
60314;SDS011;46159;42.550;21.904;2023-09-19T01:48:50;20.25;;;14.43;;
60314;SDS011;46159;42.550;21.904;2023-09-19T01:52:05;19.48;;;15.32;;
60314;SDS011;46159;42.550;21.904;2023-09-19T01:56:36;18.33;;;16.10;;
60314;SDS011;46159;42.550;21.904;2023-09-19T01:59:08;19.95;;;15.85;;
60314;SDS011;46159;42.550;21.904;2023-09-19T02:01:36;18.27;;;14.93;;
60314;SDS011;46159;42.550;21.904;2023-09-19T02:04:03;16.98;;;14.65;;
60314;SDS011;46159;42.550;21.904;2023-09-19T02:06:29;19.98;;;15.27;;
60314;SDS011;46159;42.550;21.904;2023-09-19T02:08:55;18.83;;;15.43;;
60314;SDS011;46159;42.550;21.904;2023-09-19T02:11:21;19.30;;;15.40;;
60314;SDS011;46159;42.550;21.904;2023-09-19T02:13:47;20.67;;;16.15;;
60314;SDS011;46159;42.550;21.904;2023-09-19T02:16:18;17.77;;;15.45;;
60314;SDS011;46159;42.550;21.904;2023-09-19T02:18:45;23.23;;;15.43;;
60314;SDS011;46159;42.550;21.904;2023-09-19T02:21:12;22.23;;;15.70;;
60314;SDS011;46159;42.550;21.904;2023-09-19T02:23:38;21.13;;;16.17;;
60314;SDS011;46159;42.550;21.904;2023-09-19T02:26:06;22.38;;;16.27;;
60314;SDS011;46159;42.550;21.904;2023-09-19T02:28:32;21.85;;;16.20;;
60314;SDS011;46159;42.550;21.904;2023-09-19T02:30:59;21.27;;;15.95;;
60314;SDS011;46159;42.550;21.904;2023-09-19T02:33:25;21.17;;;16.10;;
60314;SDS011;46159;42.550;21.904;2023-09-19T02:35:54;21.25;;;17.15;;
60314;SDS011;46159;42.550;21.904;2023-09-19T02:38:22;21.05;;;16.30;;
60314;SDS011;46159;42.550;21.904;2023-09-19T02:40:51;19.88;;;16.60;;
60314;SDS011;46159;42.550;21.904;2023-09-19T02:43:17;23.58;;;17.23;;
60314;SDS011;46159;42.550;21.904;2023-09-19T02:45:44;21.95;;;18.27;;
60314;SDS011;46159;42.550;21.904;2023-09-19T02:48:12;21.23;;;17.05;;
60314;SDS011;46159;42.550;21.904;2023-09-19T02:50:38;22.77;;;16.95;;
60314;SDS011;46159;42.550;21.904;2023-09-19T02:53:07;20.38;;;16.95;;
60314;SDS011;46159;42.550;21.904;2023-09-19T02:55:35;24.73;;;16.80;;
60314;SDS011;46159;42.550;21.904;2023-09-19T02:58:03;20.25;;;16.27;;
60314;SDS011;46159;42.550;21.904;2023-09-19T03:00:32;21.38;;;17.52;;
60314;SDS011;46159;42.550;21.904;2023-09-19T03:03:00;21.65;;;17.05;;
60314;SDS011;46159;42.550;21.904;2023-09-19T03:05:27;19.45;;;16.17;;
60314;SDS011;46159;42.550;21.904;2023-09-19T03:07:56;20.88;;;16.60;;
60314;SDS011;46159;42.550;21.904;2023-09-19T03:10:22;23.13;;;16.70;;
60314;SDS011;46159;42.550;21.904;2023-09-19T03:12:49;19.83;;;15.32;;
60314;SDS011;46159;42.550;21.904;2023-09-19T03:15:16;21.60;;;15.98;;
60314;SDS011;46159;42.550;21.904;2023-09-19T03:17:46;23.13;;;16.67;;
60314;SDS011;46159;42.550;21.904;2023-09-19T03:20:13;22.40;;;16.33;;
60314;SDS011;46159;42.550;21.904;2023-09-19T03:22:42;19.85;;;15.63;;
60314;SDS011;46159;42.550;21.904;2023-09-19T03:25:08;26.52;;;16.65;;
60314;SDS011;46159;42.550;21.904;2023-09-19T03:27:38;22.42;;;16.25;;
60314;SDS011;46159;42.550;21.904;2023-09-19T03:30:05;24.30;;;18.48;;
60314;SDS011;46159;42.550;21.904;2023-09-19T03:32:43;25.90;;;19.35;;
60314;SDS011;46159;42.550;21.904;2023-09-19T03:35:09;40.85;;;31.42;;
60314;SDS011;46159;42.550;21.904;2023-09-19T03:37:39;57.90;;;44.50;;
60314;SDS011;46159;42.550;21.904;2023-09-19T03:40:06;57.35;;;42.60;;
60314;SDS011;46159;42.550;21.904;2023-09-19T03:42:32;54.15;;;41.60;;
60314;SDS011;46159;42.550;21.904;2023-09-19T03:45:01;49.40;;;36.90;;
60314;SDS011;46159;42.550;21.904;2023-09-19T03:47:29;43.90;;;35.00;;
60314;SDS011;46159;42.550;21.904;2023-09-19T03:49:55;39.88;;;30.10;;
60314;SDS011;46159;42.550;21.904;2023-09-19T03:52:21;36.67;;;24.30;;
60314;SDS011;46159;42.550;21.904;2023-09-19T03:54:47;31.73;;;22.58;;
60314;SDS011;46159;42.550;21.904;2023-09-19T03:57:14;29.70;;;21.20;;
60314;SDS011;46159;42.550;21.904;2023-09-19T03:59:45;27.35;;;20.98;;
60314;SDS011;46159;42.550;21.904;2023-09-19T04:02:12;27.42;;;19.13;;
60314;SDS011;46159;42.550;21.904;2023-09-19T04:04:47;23.25;;;18.40;;
60314;SDS011;46159;42.550;21.904;2023-09-19T04:07:13;26.58;;;17.20;;
60314;SDS011;46159;42.550;21.904;2023-09-19T04:09:39;22.42;;;17.25;;
60314;SDS011;46159;42.550;21.904;2023-09-19T04:12:05;22.20;;;17.20;;
60314;SDS011;46159;42.550;21.904;2023-09-19T04:14:31;21.17;;;17.05;;
60314;SDS011;46159;42.550;21.904;2023-09-19T04:16:58;26.50;;;17.20;;
60314;SDS011;46159;42.550;21.904;2023-09-19T04:19:24;22.40;;;15.98;;
60314;SDS011;46159;42.550;21.904;2023-09-19T04:21:50;23.50;;;16.35;;
60314;SDS011;46159;42.550;21.904;2023-09-19T04:24:16;26.52;;;17.23;;
60314;SDS011;46159;42.550;21.904;2023-09-19T04:26:44;22.65;;;16.40;;
60314;SDS011;46159;42.550;21.904;2023-09-19T04:29:10;23.52;;;17.52;;
60314;SDS011;46159;42.550;21.904;2023-09-19T04:31:39;31.00;;;18.73;;
60314;SDS011;46159;42.550;21.904;2023-09-19T04:34:05;28.33;;;18.73;;
60314;SDS011;46159;42.550;21.904;2023-09-19T04:36:33;31.90;;;20.00;;
60314;SDS011;46159;42.550;21.904;2023-09-19T04:39:00;33.97;;;22.83;;
60314;SDS011;46159;42.550;21.904;2023-09-19T04:41:29;32.35;;;21.45;;
60314;SDS011;46159;42.550;21.904;2023-09-19T04:43:55;37.80;;;21.45;;
60314;SDS011;46159;42.550;21.904;2023-09-19T04:46:21;32.38;;;18.40;;
60314;SDS011;46159;42.550;21.904;2023-09-19T04:48:48;31.35;;;18.33;;
60314;SDS011;46159;42.550;21.904;2023-09-19T04:51:14;28.92;;;19.23;;
60314;SDS011;46159;42.550;21.904;2023-09-19T04:53:40;24.85;;;18.42;;
60314;SDS011;46159;42.550;21.904;2023-09-19T04:56:06;32.00;;;24.30;;
60314;SDS011;46159;42.550;21.904;2023-09-19T04:58:33;36.25;;;22.65;;
60314;SDS011;46159;42.550;21.904;2023-09-19T05:00:59;32.88;;;22.50;;
60314;SDS011;46159;42.550;21.904;2023-09-19T05:03:28;31.75;;;21.83;;
60314;SDS011;46159;42.550;21.904;2023-09-19T05:05:54;28.60;;;18.52;;
60314;SDS011;46159;42.550;21.904;2023-09-19T05:08:20;29.05;;;18.83;;
60314;SDS011;46159;42.550;21.904;2023-09-19T05:10:47;28.15;;;18.42;;
60314;SDS011;46159;42.550;21.904;2023-09-19T05:13:14;26.20;;;18.85;;
60314;SDS011;46159;42.550;21.904;2023-09-19T05:15:40;28.17;;;19.48;;
60314;SDS011;46159;42.550;21.904;2023-09-19T05:18:06;22.42;;;17.75;;
60314;SDS011;46159;42.550;21.904;2023-09-19T05:20:32;27.13;;;18.58;;
60314;SDS011;46159;42.550;21.904;2023-09-19T05:23:01;26.60;;;18.65;;
60314;SDS011;46159;42.550;21.904;2023-09-19T05:25:28;32.78;;;19.25;;
60314;SDS011;46159;42.550;21.904;2023-09-19T05:27:56;31.08;;;18.58;;
60314;SDS011;46159;42.550;21.904;2023-09-19T05:30:22;24.98;;;17.38;;
60314;SDS011;46159;42.550;21.904;2023-09-19T05:32:48;29.55;;;22.52;;
60314;SDS011;46159;42.550;21.904;2023-09-19T05:35:16;25.30;;;19.42;;
60314;SDS011;46159;42.550;21.904;2023-09-19T05:37:42;30.02;;;20.33;;
60314;SDS011;46159;42.550;21.904;2023-09-19T05:40:09;27.88;;;20.15;;
60314;SDS011;46159;42.550;21.904;2023-09-19T05:42:37;32.97;;;22.42;;
60314;SDS011;46159;42.550;21.904;2023-09-19T05:45:04;30.27;;;21.58;;
60314;SDS011;46159;42.550;21.904;2023-09-19T05:47:31;25.70;;;19.10;;
60314;SDS011;46159;42.550;21.904;2023-09-19T05:49:57;27.13;;;20.80;;
60314;SDS011;46159;42.550;21.904;2023-09-19T05:52:24;28.15;;;20.60;;
60314;SDS011;46159;42.550;21.904;2023-09-19T05:54:50;28.63;;;20.23;;
60314;SDS011;46159;42.550;21.904;2023-09-19T05:57:16;28.30;;;20.98;;
60314;SDS011;46159;42.550;21.904;2023-09-19T05:59:42;31.02;;;25.70;;
60314;SDS011;46159;42.550;21.904;2023-09-19T06:02:09;40.50;;;34.03;;
60314;SDS011;46159;42.550;21.904;2023-09-19T06:04:36;55.67;;;37.83;;
60314;SDS011;46159;42.550;21.904;2023-09-19T06:07:05;43.60;;;38.50;;
60314;SDS011;46159;42.550;21.904;2023-09-19T06:09:31;35.10;;;27.27;;
60314;SDS011;46159;42.550;21.904;2023-09-19T06:11:58;33.50;;;25.98;;
60314;SDS011;46159;42.550;21.904;2023-09-19T06:14:28;36.75;;;25.55;;
60314;SDS011;46159;42.550;21.904;2023-09-19T06:16:54;28.38;;;22.67;;
60314;SDS011;46159;42.550;21.904;2023-09-19T06:19:20;30.52;;;24.33;;
60314;SDS011;46159;42.550;21.904;2023-09-19T06:21:47;27.08;;;20.65;;
60314;SDS011;46159;42.550;21.904;2023-09-19T06:24:14;21.10;;;18.80;;
60314;SDS011;46159;42.550;21.904;2023-09-19T06:26:40;23.52;;;17.45;;
60314;SDS011;46159;42.550;21.904;2023-09-19T06:29:06;21.73;;;14.82;;
60314;SDS011;46159;42.550;21.904;2023-09-19T06:31:32;22.70;;;15.57;;
60314;SDS011;46159;42.550;21.904;2023-09-19T06:33:59;19.42;;;14.55;;
60314;SDS011;46159;42.550;21.904;2023-09-19T06:36:25;22.85;;;16.33;;
60314;SDS011;46159;42.550;21.904;2023-09-19T06:38:51;26.35;;;15.63;;
60314;SDS011;46159;42.550;21.904;2023-09-19T06:41:17;23.38;;;16.67;;
60314;SDS011;46159;42.550;21.904;2023-09-19T06:43:44;25.92;;;15.70;;
60314;SDS011;46159;42.550;21.904;2023-09-19T06:46:10;20.15;;;15.93;;
60314;SDS011;46159;42.550;21.904;2023-09-19T06:48:37;31.73;;;16.98;;
60314;SDS011;46159;42.550;21.904;2023-09-19T06:51:04;27.80;;;18.27;;
60314;SDS011;46159;42.550;21.904;2023-09-19T06:53:33;25.15;;;18.98;;
60314;SDS011;46159;42.550;21.904;2023-09-19T06:56:00;34.83;;;18.63;;
60314;SDS011;46159;42.550;21.904;2023-09-19T06:58:27;21.52;;;16.23;;
60314;SDS011;46159;42.550;21.904;2023-09-19T07:00:53;21.55;;;15.00;;
60314;SDS011;46159;42.550;21.904;2023-09-19T07:03:19;22.20;;;15.98;;
60314;SDS011;46159;42.550;21.904;2023-09-19T07:05:47;19.73;;;13.65;;
60314;SDS011;46159;42.550;21.904;2023-09-19T07:08:13;21.38;;;15.02;;
60314;SDS011;46159;42.550;21.904;2023-09-19T07:10:40;21.48;;;14.15;;
60314;SDS011;46159;42.550;21.904;2023-09-19T07:13:13;25.65;;;13.70;;
60314;SDS011;46159;42.550;21.904;2023-09-19T07:15:41;17.70;;;12.98;;
60314;SDS011;46159;42.550;21.904;2023-09-19T07:18:12;18.80;;;14.20;;
60314;SDS011;46159;42.550;21.904;2023-09-19T07:20:39;18.55;;;12.90;;
60314;SDS011;46159;42.550;21.904;2023-09-19T07:23:20;15.85;;;12.75;;
60314;SDS011;46159;42.550;21.904;2023-09-19T07:25:48;22.48;;;12.50;;
60314;SDS011;46159;42.550;21.904;2023-09-19T07:28:14;19.50;;;11.23;;
60314;SDS011;46159;42.550;21.904;2023-09-19T07:30:40;24.45;;;13.88;;
60314;SDS011;46159;42.550;21.904;2023-09-19T07:33:07;21.58;;;12.27;;
60314;SDS011;46159;42.550;21.904;2023-09-19T07:35:36;20.10;;;11.75;;
60314;SDS011;46159;42.550;21.904;2023-09-19T07:38:04;14.73;;;11.20;;
60314;SDS011;46159;42.550;21.904;2023-09-19T07:40:30;16.48;;;11.15;;
60314;SDS011;46159;42.550;21.904;2023-09-19T07:42:56;16.90;;;11.95;;
60314;SDS011;46159;42.550;21.904;2023-09-19T07:45:27;15.50;;;11.27;;
60314;SDS011;46159;42.550;21.904;2023-09-19T07:47:55;18.42;;;11.98;;
60314;SDS011;46159;42.550;21.904;2023-09-19T07:50:21;22.33;;;13.02;;
60314;SDS011;46159;42.550;21.904;2023-09-19T07:52:47;16.60;;;11.10;;
60314;SDS011;46159;42.550;21.904;2023-09-19T07:55:16;17.17;;;12.10;;
60314;SDS011;46159;42.550;21.904;2023-09-19T07:57:45;19.02;;;13.15;;
60314;SDS011;46159;42.550;21.904;2023-09-19T08:00:12;17.38;;;12.63;;
60314;SDS011;46159;42.550;21.904;2023-09-19T08:02:39;21.30;;;12.05;;
60314;SDS011;46159;42.550;21.904;2023-09-19T08:05:07;18.30;;;11.07;;
60314;SDS011;46159;42.550;21.904;2023-09-19T08:07:51;19.33;;;12.98;;
60314;SDS011;46159;42.550;21.904;2023-09-19T08:10:17;14.93;;;10.90;;
60314;SDS011;46159;42.550;21.904;2023-09-19T08:12:45;15.90;;;11.50;;
60314;SDS011;46159;42.550;21.904;2023-09-19T08:15:12;16.88;;;9.73;;
60314;SDS011;46159;42.550;21.904;2023-09-19T08:17:39;13.82;;;10.07;;
60314;SDS011;46159;42.550;21.904;2023-09-19T08:20:05;20.90;;;11.00;;
60314;SDS011;46159;42.550;21.904;2023-09-19T08:22:32;13.38;;;9.35;;
60314;SDS011;46159;42.550;21.904;2023-09-19T08:24:58;16.65;;;9.77;;
60314;SDS011;46159;42.550;21.904;2023-09-19T08:27:24;14.68;;;9.20;;
60314;SDS011;46159;42.550;21.904;2023-09-19T08:29:53;12.30;;;7.78;;
60314;SDS011;46159;42.550;21.904;2023-09-19T08:32:19;12.82;;;8.48;;
60314;SDS011;46159;42.550;21.904;2023-09-19T08:34:49;15.10;;;11.02;;
60314;SDS011;46159;42.550;21.904;2023-09-19T08:37:15;13.73;;;9.55;;
60314;SDS011;46159;42.550;21.904;2023-09-19T08:39:42;15.43;;;9.35;;
60314;SDS011;46159;42.550;21.904;2023-09-19T08:42:09;12.07;;;8.38;;
60314;SDS011;46159;42.550;21.904;2023-09-19T08:44:37;16.30;;;8.55;;
60314;SDS011;46159;42.550;21.904;2023-09-19T08:47:09;12.43;;;8.68;;
60314;SDS011;46159;42.550;21.904;2023-09-19T08:52:07;14.48;;;10.55;;
60314;SDS011;46159;42.550;21.904;2023-09-19T08:54:37;16.48;;;9.93;;
60314;SDS011;46159;42.550;21.904;2023-09-19T08:57:05;12.90;;;9.13;;
60314;SDS011;46159;42.550;21.904;2023-09-19T08:59:37;14.65;;;10.20;;
60314;SDS011;46159;42.550;21.904;2023-09-19T09:02:08;15.18;;;9.95;;
60314;SDS011;46159;42.550;21.904;2023-09-19T09:04:40;16.63;;;8.98;;
60314;SDS011;46159;42.550;21.904;2023-09-19T09:07:11;14.40;;;8.93;;
60314;SDS011;46159;42.550;21.904;2023-09-19T09:09:38;13.43;;;8.35;;
60314;SDS011;46159;42.550;21.904;2023-09-19T09:12:11;20.75;;;9.10;;
60314;SDS011;46159;42.550;21.904;2023-09-19T09:14:39;11.18;;;8.05;;
60314;SDS011;46159;42.550;21.904;2023-09-19T09:17:05;10.98;;;7.55;;
60314;SDS011;46159;42.550;21.904;2023-09-19T09:19:32;12.13;;;8.50;;
60314;SDS011;46159;42.550;21.904;2023-09-19T09:22:08;14.32;;;10.18;;
60314;SDS011;46159;42.550;21.904;2023-09-19T09:24:34;13.98;;;8.15;;
60314;SDS011;46159;42.550;21.904;2023-09-19T09:27:05;12.15;;;7.97;;
60314;SDS011;46159;42.550;21.904;2023-09-19T09:29:45;11.77;;;7.70;;
60314;SDS011;46159;42.550;21.904;2023-09-19T09:34:48;9.90;;;7.22;;
60314;SDS011;46159;42.550;21.904;2023-09-19T09:37:15;13.43;;;7.40;;
60314;SDS011;46159;42.550;21.904;2023-09-19T09:39:51;11.05;;;7.80;;
60314;SDS011;46159;42.550;21.904;2023-09-19T09:42:29;12.20;;;8.07;;
60314;SDS011;46159;42.550;21.904;2023-09-19T09:45:19;12.40;;;7.40;;
60314;SDS011;46159;42.550;21.904;2023-09-19T09:47:45;13.40;;;8.27;;
60314;SDS011;46159;42.550;21.904;2023-09-19T09:50:32;14.02;;;8.00;;
60314;SDS011;46159;42.550;21.904;2023-09-19T09:53:34;12.95;;;8.07;;
60314;SDS011;46159;42.550;21.904;2023-09-19T09:56:08;13.55;;;9.13;;
60314;SDS011;46159;42.550;21.904;2023-09-19T09:58:51;14.10;;;8.80;;
60314;SDS011;46159;42.550;21.904;2023-09-19T10:01:23;13.10;;;8.85;;
60314;SDS011;46159;42.550;21.904;2023-09-19T10:03:56;12.48;;;8.85;;
60314;SDS011;46159;42.550;21.904;2023-09-19T10:06:23;14.07;;;9.02;;
60314;SDS011;46159;42.550;21.904;2023-09-19T10:08:59;13.85;;;8.80;;
60314;SDS011;46159;42.550;21.904;2023-09-19T10:11:30;15.32;;;10.10;;
60314;SDS011;46159;42.550;21.904;2023-09-19T10:13:57;14.65;;;9.75;;
60314;SDS011;46159;42.550;21.904;2023-09-19T10:16:23;16.00;;;9.05;;
60314;SDS011;46159;42.550;21.904;2023-09-19T10:18:50;18.02;;;9.75;;
60314;SDS011;46159;42.550;21.904;2023-09-19T10:21:19;16.92;;;9.52;;
60314;SDS011;46159;42.550;21.904;2023-09-19T10:23:48;18.00;;;8.82;;
60314;SDS011;46159;42.550;21.904;2023-09-19T10:26:17;17.15;;;8.98;;
60314;SDS011;46159;42.550;21.904;2023-09-19T10:28:43;13.48;;;8.60;;
60314;SDS011;46159;42.550;21.904;2023-09-19T10:31:13;13.85;;;8.85;;
60314;SDS011;46159;42.550;21.904;2023-09-19T10:33:44;13.05;;;8.00;;
60314;SDS011;46159;42.550;21.904;2023-09-19T10:36:11;14.57;;;8.30;;
60314;SDS011;46159;42.550;21.904;2023-09-19T10:38:37;14.63;;;9.15;;
60314;SDS011;46159;42.550;21.904;2023-09-19T10:41:06;13.25;;;7.03;;
60314;SDS011;46159;42.550;21.904;2023-09-19T10:43:33;12.68;;;7.70;;
60314;SDS011;46159;42.550;21.904;2023-09-19T10:46:00;12.10;;;8.30;;
60314;SDS011;46159;42.550;21.904;2023-09-19T10:48:29;14.55;;;7.05;;
60314;SDS011;46159;42.550;21.904;2023-09-19T10:51:10;13.35;;;7.80;;
60314;SDS011;46159;42.550;21.904;2023-09-19T10:56:08;14.90;;;9.38;;
60314;SDS011;46159;42.550;21.904;2023-09-19T10:58:42;15.55;;;7.68;;
60314;SDS011;46159;42.550;21.904;2023-09-19T11:01:10;13.25;;;7.40;;
60314;SDS011;46159;42.550;21.904;2023-09-19T11:03:40;13.70;;;7.53;;
60314;SDS011;46159;42.550;21.904;2023-09-19T11:14:13;13.95;;;7.70;;
60314;SDS011;46159;42.550;21.904;2023-09-19T11:16:40;13.40;;;8.27;;
60314;SDS011;46159;42.550;21.904;2023-09-19T11:19:48;12.10;;;8.05;;
60314;SDS011;46159;42.550;21.904;2023-09-19T11:22:13;11.13;;;8.02;;
60314;SDS011;46159;42.550;21.904;2023-09-19T11:24:39;14.88;;;8.45;;
60314;SDS011;46159;42.550;21.904;2023-09-19T11:27:10;14.68;;;9.35;;
60314;SDS011;46159;42.550;21.904;2023-09-19T11:29:42;14.15;;;7.82;;
60314;SDS011;46159;42.550;21.904;2023-09-19T11:32:08;13.07;;;8.25;;
60314;SDS011;46159;42.550;21.904;2023-09-19T11:34:44;13.60;;;8.95;;
60314;SDS011;46159;42.550;21.904;2023-09-19T11:39:37;12.90;;;8.23;;
60314;SDS011;46159;42.550;21.904;2023-09-19T11:44:48;14.82;;;7.93;;
60314;SDS011;46159;42.550;21.904;2023-09-19T11:47:17;13.65;;;8.77;;
60314;SDS011;46159;42.550;21.904;2023-09-19T11:49:44;11.93;;;8.25;;
60314;SDS011;46159;42.550;21.904;2023-09-19T11:52:10;14.65;;;9.05;;
60314;SDS011;46159;42.550;21.904;2023-09-19T11:54:39;14.48;;;8.57;;
60314;SDS011;46159;42.550;21.904;2023-09-19T11:57:06;11.88;;;8.40;;
60314;SDS011;46159;42.550;21.904;2023-09-19T11:59:33;17.42;;;11.13;;
60314;SDS011;46159;42.550;21.904;2023-09-19T12:02:03;13.13;;;8.60;;
60314;SDS011;46159;42.550;21.904;2023-09-19T12:04:33;16.73;;;8.48;;
60314;SDS011;46159;42.550;21.904;2023-09-19T12:07:12;15.77;;;10.07;;
60314;SDS011;46159;42.550;21.904;2023-09-19T12:12:19;15.30;;;8.10;;
60314;SDS011;46159;42.550;21.904;2023-09-19T12:14:48;17.50;;;8.88;;
60314;SDS011;46159;42.550;21.904;2023-09-19T12:17:15;18.17;;;8.93;;
60314;SDS011;46159;42.550;21.904;2023-09-19T12:19:50;13.32;;;8.10;;
60314;SDS011;46159;42.550;21.904;2023-09-19T12:22:16;15.50;;;9.05;;
60314;SDS011;46159;42.550;21.904;2023-09-19T12:24:44;14.52;;;8.15;;
60314;SDS011;46159;42.550;21.904;2023-09-19T12:27:12;34.08;;;21.67;;
60314;SDS011;46159;42.550;21.904;2023-09-19T12:29:45;20.45;;;13.88;;
60314;SDS011;46159;42.550;21.904;2023-09-19T12:32:11;17.83;;;14.48;;
60314;SDS011;46159;42.550;21.904;2023-09-19T12:34:39;13.82;;;9.60;;
60314;SDS011;46159;42.550;21.904;2023-09-19T12:37:16;11.70;;;7.97;;
60314;SDS011;46159;42.550;21.904;2023-09-19T12:40:03;16.60;;;8.27;;
60314;SDS011;46159;42.550;21.904;2023-09-19T12:42:39;12.10;;;7.97;;
60314;SDS011;46159;42.550;21.904;2023-09-19T12:45:06;14.93;;;8.50;;
60314;SDS011;46159;42.550;21.904;2023-09-19T12:47:34;16.42;;;9.95;;
60314;SDS011;46159;42.550;21.904;2023-09-19T12:50:13;12.82;;;8.60;;
60314;SDS011;46159;42.550;21.904;2023-09-19T12:52:44;11.43;;;8.73;;
60314;SDS011;46159;42.550;21.904;2023-09-19T13:00:35;11.52;;;7.82;;
60314;SDS011;46159;42.550;21.904;2023-09-19T13:03:16;11.77;;;6.82;;
60314;SDS011;46159;42.550;21.904;2023-09-19T13:05:48;12.10;;;6.03;;
60314;SDS011;46159;42.550;21.904;2023-09-19T13:08:28;12.40;;;6.88;;
60314;SDS011;46159;42.550;21.904;2023-09-19T13:11:15;12.48;;;7.18;;
60314;SDS011;46159;42.550;21.904;2023-09-19T13:13:47;10.95;;;7.75;;
60314;SDS011;46159;42.550;21.904;2023-09-19T13:16:18;11.45;;;6.32;;
60314;SDS011;46159;42.550;21.904;2023-09-19T13:18:53;11.32;;;6.70;;
60314;SDS011;46159;42.550;21.904;2023-09-19T13:21:34;12.52;;;7.28;;
60314;SDS011;46159;42.550;21.904;2023-09-19T13:24:24;9.93;;;6.47;;
60314;SDS011;46159;42.550;21.904;2023-09-19T13:26:52;11.35;;;7.53;;
60314;SDS011;46159;42.550;21.904;2023-09-19T13:29:18;11.60;;;6.95;;
60314;SDS011;46159;42.550;21.904;2023-09-19T13:31:54;12.60;;;7.22;;
60314;SDS011;46159;42.550;21.904;2023-09-19T13:34:20;16.77;;;7.35;;
60314;SDS011;46159;42.550;21.904;2023-09-19T13:36:46;14.57;;;7.38;;
60314;SDS011;46159;42.550;21.904;2023-09-19T13:39:15;17.33;;;6.90;;
60314;SDS011;46159;42.550;21.904;2023-09-19T13:41:43;14.05;;;7.90;;
60314;SDS011;46159;42.550;21.904;2023-09-19T13:44:10;10.52;;;6.32;;
60314;SDS011;46159;42.550;21.904;2023-09-19T13:46:36;11.18;;;7.05;;
60314;SDS011;46159;42.550;21.904;2023-09-19T13:49:02;11.10;;;7.13;;
60314;SDS011;46159;42.550;21.904;2023-09-19T13:51:30;11.63;;;7.68;;
60314;SDS011;46159;42.550;21.904;2023-09-19T13:53:57;12.57;;;7.22;;
60314;SDS011;46159;42.550;21.904;2023-09-19T13:56:24;12.18;;;7.47;;
60314;SDS011;46159;42.550;21.904;2023-09-19T13:58:53;9.25;;;6.20;;
60314;SDS011;46159;42.550;21.904;2023-09-19T14:01:19;14.75;;;7.32;;
60314;SDS011;46159;42.550;21.904;2023-09-19T14:03:45;12.07;;;8.38;;
60314;SDS011;46159;42.550;21.904;2023-09-19T14:06:14;13.48;;;7.45;;
60314;SDS011;46159;42.550;21.904;2023-09-19T14:08:40;12.73;;;8.48;;
60314;SDS011;46159;42.550;21.904;2023-09-19T14:11:09;12.77;;;7.97;;
60314;SDS011;46159;42.550;21.904;2023-09-19T14:13:35;13.77;;;7.97;;
60314;SDS011;46159;42.550;21.904;2023-09-19T14:16:05;15.52;;;8.02;;
60314;SDS011;46159;42.550;21.904;2023-09-19T14:18:34;15.65;;;8.75;;
60314;SDS011;46159;42.550;21.904;2023-09-19T14:21:04;13.57;;;7.05;;
60314;SDS011;46159;42.550;21.904;2023-09-19T14:23:37;17.50;;;7.65;;
60314;SDS011;46159;42.550;21.904;2023-09-19T14:26:03;14.93;;;8.40;;
60314;SDS011;46159;42.550;21.904;2023-09-19T14:28:30;16.95;;;7.93;;
60314;SDS011;46159;42.550;21.904;2023-09-19T14:31:03;12.70;;;7.38;;
60314;SDS011;46159;42.550;21.904;2023-09-19T14:33:29;17.02;;;8.43;;
60314;SDS011;46159;42.550;21.904;2023-09-19T14:35:56;19.35;;;9.18;;
60314;SDS011;46159;42.550;21.904;2023-09-19T14:38:22;14.68;;;8.25;;
60314;SDS011;46159;42.550;21.904;2023-09-19T14:40:48;16.63;;;8.32;;
60314;SDS011;46159;42.550;21.904;2023-09-19T14:43:15;14.38;;;7.85;;
60314;SDS011;46159;42.550;21.904;2023-09-19T14:45:41;13.75;;;8.50;;
60314;SDS011;46159;42.550;21.904;2023-09-19T14:48:08;12.57;;;7.68;;
60314;SDS011;46159;42.550;21.904;2023-09-19T14:50:34;11.70;;;8.18;;
60314;SDS011;46159;42.550;21.904;2023-09-19T14:53:00;16.10;;;7.82;;
60314;SDS011;46159;42.550;21.904;2023-09-19T14:55:27;12.57;;;8.43;;
60314;SDS011;46159;42.550;21.904;2023-09-19T14:57:54;13.30;;;8.32;;
60314;SDS011;46159;42.550;21.904;2023-09-19T15:00:23;18.42;;;8.48;;
60314;SDS011;46159;42.550;21.904;2023-09-19T15:02:49;20.65;;;9.10;;
60314;SDS011;46159;42.550;21.904;2023-09-19T15:05:16;18.58;;;8.27;;
60314;SDS011;46159;42.550;21.904;2023-09-19T15:07:42;16.85;;;9.68;;
60314;SDS011;46159;42.550;21.904;2023-09-19T15:10:08;20.08;;;9.40;;
60314;SDS011;46159;42.550;21.904;2023-09-19T15:12:38;20.13;;;9.48;;